createdAt,value
2023-01-06T00:02:54.196Z,14.52
2023-01-06T00:06:20.150Z,12.70
2023-01-06T00:08:52.649Z,11.38
2023-01-06T00:11:21.303Z,12.20
2023-01-06T00:13:51.581Z,12.55
2023-01-06T00:16:21.821Z,11.82
2023-01-06T00:19:00.266Z,11.77
2023-01-06T00:21:29.186Z,14.15
2023-01-06T00:24:03.133Z,14.18
2023-01-06T00:26:37.620Z,17.10
2023-01-06T00:29:14.371Z,12.23
2023-01-06T00:31:51.598Z,17.55
2023-01-06T00:34:35.618Z,15.10
2023-01-06T00:37:05.260Z,15.65
2023-01-06T00:39:40.242Z,13.93
2023-01-06T00:42:11.830Z,15.20
2023-01-06T00:44:58.505Z,11.70
2023-01-06T00:47:38.844Z,13.75
2023-01-06T00:50:28.911Z,12.77
2023-01-06T00:53:11.327Z,13.13
2023-01-06T00:56:09.379Z,13.52
2023-01-06T00:58:42.255Z,13.98
2023-01-06T01:01:11.846Z,15.02
2023-01-06T01:03:43.440Z,12.95
2023-01-06T01:06:12.366Z,15.57
2023-01-06T01:12:06.960Z,14.88
2023-01-06T01:15:00.564Z,12.60
2023-01-06T01:17:32.503Z,13.38
2023-01-06T01:20:30.718Z,16.27
2023-01-06T01:23:02.513Z,12.60
2023-01-06T01:25:56.780Z,15.32
2023-01-06T01:28:50.392Z,13.43
2023-01-06T01:38:47.391Z,21.85
2023-01-06T01:41:26.363Z,16.90
2023-01-06T01:43:58.686Z,18.70
2023-01-06T01:47:03.534Z,13.85
2023-01-06T02:00:56.761Z,15.45
2023-01-06T02:03:28.395Z,12.63
2023-01-06T02:06:16.936Z,16.38
2023-01-06T02:09:32.334Z,17.25
2023-01-06T02:12:57.399Z,15.48
2023-01-06T02:15:30.059Z,14.90
2023-01-06T02:21:37.159Z,13.98
2023-01-06T02:28:47.930Z,11.88
2023-01-06T02:32:09.799Z,12.80
2023-01-06T02:44:25.779Z,11.35
2023-01-06T03:35:43.301Z,11.40
2023-01-06T03:55:32.207Z,10.77
2023-01-06T03:58:02.153Z,12.98
2023-01-06T04:03:36.951Z,13.50
2023-01-06T04:06:07.107Z,12.77
2023-01-06T04:12:13.521Z,15.30
2023-01-06T04:23:33.792Z,13.90
2023-01-06T04:26:52.172Z,13.88
2023-01-06T04:29:52.306Z,10.75
2023-01-06T04:36:16.039Z,17.38
2023-01-06T04:39:37.647Z,12.23
2023-01-06T04:43:13.428Z,14.02
2023-01-06T04:45:13.709Z,14.05
2023-01-06T04:47:45.521Z,12.93
2023-01-06T04:50:16.136Z,13.38
2023-01-06T05:01:13.516Z,15.70
2023-01-06T05:04:08.205Z,11.45
2023-01-06T05:10:01.688Z,11.35
2023-01-06T05:12:36.271Z,13.88
2023-01-06T05:15:05.579Z,12.93
2023-01-06T05:17:53.095Z,14.23
2023-01-06T05:20:21.595Z,12.02
2023-01-06T05:22:50.438Z,12.77
2023-01-06T05:25:57.705Z,11.27
2023-01-06T05:28:25.046Z,12.38
2023-01-06T05:30:54.142Z,14.30
2023-01-06T05:33:24.162Z,13.57
2023-01-06T05:36:02.994Z,13.98
2023-01-06T05:38:36.626Z,11.45
2023-01-06T05:41:26.542Z,14.00
2023-01-06T05:44:08.888Z,14.38
2023-01-06T05:47:01.452Z,12.52
2023-01-06T05:52:27.054Z,13.32
2023-01-06T05:55:08.223Z,11.63
2023-01-06T05:57:39.816Z,15.52
2023-01-06T06:00:36.884Z,9.93
2023-01-06T06:03:44.190Z,12.88
2023-01-06T06:06:15.950Z,13.45
2023-01-06T06:09:25.180Z,12.77
2023-01-06T06:12:44.164Z,16.80
2023-01-06T06:15:17.946Z,18.95
2023-01-06T06:17:49.386Z,13.10
2023-01-06T06:20:18.393Z,14.65
2023-01-06T06:27:03.207Z,13.68
2023-01-06T06:30:38.317Z,11.55
2023-01-06T06:33:06.909Z,17.38
2023-01-06T06:37:40.785Z,13.32
2023-01-06T06:48:22.249Z,17.15
2023-01-06T06:58:46.331Z,20.33
2023-01-06T07:14:25.553Z,15.18
2023-01-06T07:17:22.683Z,14.88
2023-01-06T07:25:36.272Z,15.43
2023-01-06T07:27:30.144Z,13.63
2023-01-06T07:28:33.429Z,15.38
2023-01-06T07:31:53.979Z,18.38
2023-01-06T07:38:54.367Z,16.42
2023-01-06T07:41:29.187Z,12.23
2023-01-06T07:44:53.936Z,13.60
2023-01-06T07:52:27.563Z,17.63
2023-01-06T08:00:03.140Z,14.52
2023-01-06T08:03:55.063Z,15.55
2023-01-06T08:10:02.003Z,15.07
2023-01-06T08:12:42.330Z,12.15
2023-01-06T08:15:40.675Z,14.20
2023-01-06T08:25:41.089Z,15.23
2023-01-06T08:26:34.338Z,15.40
2023-01-06T08:29:12.322Z,15.23
2023-01-06T08:32:22.125Z,15.45
2023-01-06T08:42:21.754Z,13.90
2023-01-06T08:44:50.510Z,13.85
2023-01-06T08:51:35.210Z,14.93
2023-01-06T09:03:34.699Z,16.73
2023-01-06T09:14:43.283Z,16.35
2023-01-06T09:39:00.029Z,19.73
2023-01-06T09:47:29.821Z,15.90
2023-01-06T10:07:21.147Z,16.70
2023-01-06T10:10:36.778Z,15.70
2023-01-06T10:13:59.869Z,18.85
2023-01-06T10:17:16.263Z,14.35
2023-01-06T10:20:40.683Z,19.08
2023-01-06T10:23:24.449Z,19.35
2023-01-06T10:26:50.341Z,17.33
2023-01-06T10:29:38.517Z,15.30
2023-01-06T10:36:46.645Z,19.00
2023-01-06T10:39:22.986Z,17.92
2023-01-06T10:44:59.105Z,20.52
2023-01-06T10:50:37.060Z,17.27
2023-01-06T10:54:58.766Z,14.25
2023-01-06T10:57:36.392Z,13.18
2023-01-06T11:00:17.245Z,14.85
2023-01-06T11:11:26.744Z,10.05
2023-01-06T11:14:36.724Z,11.23
2023-01-06T11:45:44.905Z,15.20
2023-01-06T11:52:46.953Z,15.02
2023-01-06T12:45:41.088Z,21.17
2023-01-06T12:48:24.965Z,23.92
2023-01-06T12:59:51.102Z,22.65
2023-01-06T13:02:58.351Z,20.17
2023-01-06T13:06:55.479Z,23.63
2023-01-06T13:15:01.600Z,23.70
2023-01-06T13:22:54.382Z,22.13
2023-01-06T13:30:40.600Z,21.40
2023-01-06T13:51:34.956Z,33.72
2023-01-06T13:54:27.341Z,28.90
2023-01-06T14:01:34.639Z,29.90
2023-01-06T14:06:11.718Z,33.40
2023-01-06T14:09:36.651Z,41.13
2023-01-06T14:16:16.715Z,30.95
2023-01-06T14:18:51.313Z,30.13
2023-01-06T14:21:36.709Z,37.67
2023-01-06T14:24:09.293Z,29.83
2023-01-06T14:26:49.651Z,30.73
2023-01-06T14:29:46.807Z,41.90
2023-01-06T14:32:56.657Z,36.20
2023-01-06T14:35:37.163Z,27.25
2023-01-06T14:38:08.307Z,27.33
2023-01-06T14:40:41.936Z,29.00
2023-01-06T14:43:30.675Z,28.23
2023-01-06T14:46:07.520Z,28.27
2023-01-06T14:48:43.343Z,27.65
2023-01-06T14:51:19.213Z,28.20
2023-01-06T14:54:06.214Z,26.65
2023-01-06T14:56:57.776Z,30.02
2023-01-06T14:59:27.051Z,31.35
2023-01-06T15:01:59.968Z,31.00
2023-01-06T15:04:57.509Z,31.85
2023-01-06T15:07:25.933Z,27.73
2023-01-06T15:09:54.392Z,31.98
2023-01-06T15:12:30.719Z,29.85
2023-01-06T15:15:14.874Z,33.35
2023-01-06T15:17:43.377Z,30.42
2023-01-06T15:20:15.024Z,30.00
2023-01-06T15:22:46.883Z,33.60
2023-01-06T15:25:22.134Z,34.88
2023-01-06T15:28:06.871Z,34.80
2023-01-06T15:30:36.882Z,36.72
2023-01-06T15:33:06.603Z,38.80
2023-01-06T15:35:35.514Z,37.42
2023-01-06T15:38:08.278Z,36.70
2023-01-06T15:40:36.812Z,44.47
2023-01-06T15:43:11.955Z,42.15
2023-01-06T15:45:42.420Z,38.42
2023-01-06T15:48:13.547Z,34.22
2023-01-06T15:50:42.153Z,36.35
2023-01-06T15:53:24.716Z,35.75
2023-01-06T15:55:56.365Z,35.17
2023-01-06T15:58:30.323Z,35.55
2023-01-06T16:01:02.587Z,31.15
2023-01-06T16:03:33.115Z,34.72
2023-01-06T16:06:12.800Z,30.48
2023-01-06T16:08:41.887Z,32.20
2023-01-06T16:11:47.349Z,34.03
2023-01-06T16:14:31.353Z,30.35
2023-01-06T16:17:09.220Z,33.50
2023-01-06T16:27:35.114Z,37.72
2023-01-06T16:30:44.248Z,40.85
2023-01-06T16:33:46.039Z,39.97
2023-01-06T16:36:21.249Z,41.15
2023-01-06T16:38:49.731Z,43.47
2023-01-06T16:41:20.303Z,48.40
2023-01-06T16:43:48.560Z,43.20
2023-01-06T16:46:41.741Z,37.30
2023-01-06T16:49:11.648Z,42.53
2023-01-06T16:51:40.724Z,37.33
2023-01-06T16:54:13.410Z,48.22
2023-01-06T16:56:41.906Z,42.75
2023-01-06T16:59:13.840Z,44.38
2023-01-06T17:01:44.924Z,38.42
2023-01-06T17:04:14.784Z,42.08
2023-01-06T17:06:45.208Z,38.20
2023-01-06T17:09:20.230Z,35.03
2023-01-06T17:11:54.321Z,43.08
2023-01-06T17:14:32.432Z,41.63
2023-01-06T17:25:23.427Z,44.20
2023-01-06T17:27:51.900Z,43.20
2023-01-06T17:30:22.763Z,40.95
2023-01-06T17:32:52.668Z,40.03
2023-01-06T17:35:28.409Z,44.80
2023-01-06T17:38:00.279Z,48.17
2023-01-06T17:40:36.833Z,43.17
2023-01-06T17:43:16.578Z,59.10
2023-01-06T17:45:45.339Z,50.13
2023-01-06T17:48:15.775Z,51.15
2023-01-06T17:50:48.487Z,55.22
2023-01-06T17:53:36.493Z,51.42
2023-01-06T17:56:07.224Z,52.47
2023-01-06T17:59:26.914Z,53.92
2023-01-06T18:01:55.325Z,51.22
2023-01-06T18:04:26.760Z,46.15
2023-01-06T18:06:55.629Z,52.40
2023-01-06T18:09:25.665Z,57.65
2023-01-06T18:11:58.778Z,54.15
2023-01-06T18:14:34.367Z,55.70
2023-01-06T18:17:16.356Z,51.53
2023-01-06T18:19:46.009Z,52.70
2023-01-06T18:22:19.036Z,55.78
2023-01-06T18:28:20.725Z,47.30
2023-01-06T18:31:58.810Z,50.22
2023-01-06T18:35:24.913Z,46.90
2023-01-06T18:38:45.305Z,52.60
2023-01-06T18:41:20.822Z,62.28
2023-01-06T18:49:08.714Z,49.40
2023-01-06T18:55:01.036Z,54.00
2023-01-06T18:57:33.242Z,50.83
2023-01-06T19:00:34.120Z,50.40
2023-01-06T19:03:35.107Z,45.22
2023-01-06T19:06:33.205Z,48.42
2023-01-06T19:09:15.889Z,47.78
2023-01-06T19:11:44.625Z,46.08
2023-01-06T19:14:18.798Z,46.05
2023-01-06T19:16:52.618Z,52.60
2023-01-06T19:19:25.990Z,57.17
2023-01-06T19:22:09.087Z,51.53
2023-01-06T19:24:44.160Z,55.65
2023-01-06T19:27:32.189Z,52.08
2023-01-06T19:30:35.382Z,49.65
2023-01-06T19:33:22.982Z,49.63
2023-01-06T19:35:52.286Z,46.45
2023-01-06T19:38:26.546Z,58.35
2023-01-06T19:40:56.665Z,53.60
2023-01-06T19:43:29.308Z,51.25
2023-01-06T19:45:59.543Z,54.42
2023-01-06T19:48:33.260Z,47.60
2023-01-06T19:51:11.170Z,48.10
2023-01-06T19:53:43.965Z,53.13
2023-01-06T19:56:22.024Z,47.30
2023-01-06T19:58:53.611Z,51.22
2023-01-06T20:01:24.228Z,49.78
2023-01-06T20:03:54.820Z,48.22
2023-01-06T20:06:24.203Z,48.03
2023-01-06T20:08:53.932Z,48.78
2023-01-06T20:11:24.824Z,52.78
2023-01-06T20:13:53.298Z,40.65
2023-01-06T20:16:23.226Z,50.28
2023-01-06T20:18:51.860Z,47.90
2023-01-06T20:21:20.217Z,44.72
2023-01-06T20:23:48.536Z,43.75
2023-01-06T20:26:16.807Z,46.33
2023-01-06T20:28:45.219Z,42.90
2023-01-06T20:31:13.548Z,48.80
2023-01-06T20:33:43.339Z,42.58
2023-01-06T20:36:11.624Z,41.08
2023-01-06T20:38:39.916Z,38.03
2023-01-06T20:41:08.213Z,38.97
2023-01-06T20:43:36.646Z,37.53
2023-01-06T20:46:05.528Z,37.88
2023-01-06T20:48:33.930Z,39.33
2023-01-06T20:51:03.660Z,39.70
2023-01-06T20:53:31.931Z,40.33
2023-01-06T20:56:00.400Z,39.83
2023-01-06T20:58:28.714Z,38.13
2023-01-06T21:00:57.138Z,38.20
2023-01-06T21:03:25.667Z,39.28
2023-01-06T21:05:54.405Z,38.78
2023-01-06T21:08:24.284Z,32.95
2023-01-06T21:10:52.621Z,38.00
2023-01-06T21:13:24.112Z,35.80
2023-01-06T21:15:52.783Z,40.97
2023-01-06T21:18:21.104Z,41.60
2023-01-06T21:20:49.888Z,43.65
2023-01-06T21:23:18.352Z,39.22
2023-01-06T21:25:48.697Z,39.67
2023-01-06T21:28:17.130Z,40.08
2023-01-06T21:30:45.646Z,39.40
2023-01-06T21:33:14.647Z,42.22
2023-01-06T21:35:43.082Z,38.75
2023-01-06T21:38:11.459Z,45.75
2023-01-06T21:40:39.748Z,41.13
2023-01-06T21:43:08.759Z,37.58
2023-01-06T21:45:37.585Z,40.28
2023-01-06T21:48:07.142Z,40.03
2023-01-06T21:50:39.130Z,39.20
2023-01-06T21:53:09.330Z,34.65
2023-01-06T21:55:38.290Z,43.00
2023-01-06T21:58:08.350Z,37.05
2023-01-06T22:00:36.963Z,39.90
2023-01-06T22:03:05.753Z,42.28
2023-01-06T22:05:35.057Z,48.97
2023-01-06T22:08:04.047Z,50.92
2023-01-06T22:10:32.742Z,45.78
2023-01-06T22:13:02.062Z,44.33
2023-01-06T22:15:32.103Z,42.92
2023-01-06T22:18:02.308Z,46.13
2023-01-06T22:20:32.685Z,43.85
2023-01-06T22:23:03.427Z,40.85
2023-01-06T22:25:32.288Z,49.72
2023-01-06T22:28:00.752Z,46.80
2023-01-06T22:30:31.827Z,42.38
2023-01-06T22:33:00.258Z,42.03
2023-01-06T22:35:29.008Z,43.00
2023-01-06T22:37:59.482Z,36.88
2023-01-06T22:40:29.725Z,47.28
2023-01-06T22:42:58.603Z,43.75
2023-01-06T22:45:27.434Z,51.30
2023-01-06T22:48:13.419Z,46.03
2023-01-06T22:50:42.240Z,49.17
2023-01-06T22:53:10.957Z,46.97
2023-01-06T22:55:39.633Z,43.83
2023-01-06T22:58:09.255Z,48.78
2023-01-06T23:00:38.029Z,54.47
2023-01-06T23:03:06.924Z,45.47
2023-01-06T23:05:37.229Z,43.50
2023-01-06T23:08:06.399Z,49.42
2023-01-06T23:10:35.723Z,53.42
2023-01-06T23:13:04.420Z,54.80
2023-01-06T23:15:33.395Z,49.10
2023-01-06T23:18:02.455Z,43.25
2023-01-06T23:20:31.107Z,51.13
2023-01-06T23:23:01.276Z,46.85
2023-01-06T23:25:30.127Z,48.33
2023-01-06T23:28:04.642Z,57.17
2023-01-06T23:30:33.489Z,51.97
2023-01-06T23:33:02.080Z,47.63
2023-01-06T23:35:30.875Z,53.63
2023-01-06T23:38:03.441Z,56.90
2023-01-06T23:40:32.449Z,53.50
2023-01-06T23:43:01.632Z,60.85
2023-01-06T23:45:30.774Z,60.40
2023-01-06T23:48:00.392Z,57.95
2023-01-06T23:50:29.136Z,62.42
2023-01-06T23:52:57.526Z,57.55
2023-01-06T23:55:27.217Z,49.72
2023-01-06T23:57:55.596Z,62.00
